sensor_id;sensor_type;location;lat;lon;timestamp;pressure;altitude;pressure_sealevel;temperature;humidity
78679;BME280;67994;59.334;13.528;2024-02-21T00:00:00;100200.0;;;6.0;80.4
78679;BME280;67994;59.334;13.528;2024-02-21T00:01:00;100200.0;;;6.0;80.8
78679;BME280;67994;59.334;13.528;2024-02-21T00:02:00;100100.0;;;6.0;80.5
78679;BME280;67994;59.334;13.528;2024-02-21T00:03:01;100100.0;;;6.0;80.5
78679;BME280;67994;59.334;13.528;2024-02-21T00:04:01;100100.0;;;6.1;80.5
78679;BME280;67994;59.334;13.528;2024-02-21T00:05:00;100100.0;;;6.1;81.1
78679;BME280;67994;59.334;13.528;2024-02-21T00:06:01;100100.0;;;6.0;81.1
78679;BME280;67994;59.334;13.528;2024-02-21T00:07:00;100100.0;;;6.0;81.4
78679;BME280;67994;59.334;13.528;2024-02-21T00:08:02;100100.0;;;6.0;81.7
78679;BME280;67994;59.334;13.528;2024-02-21T00:09:01;100100.0;;;6.1;81.3
78679;BME280;67994;59.334;13.528;2024-02-21T00:10:00;100100.0;;;6.0;82.0
78679;BME280;67994;59.334;13.528;2024-02-21T00:11:01;100100.0;;;6.1;81.3
78679;BME280;67994;59.334;13.528;2024-02-21T00:12:01;100100.0;;;6.1;81.5
78679;BME280;67994;59.334;13.528;2024-02-21T00:13:01;100100.0;;;6.1;81.6
78679;BME280;67994;59.334;13.528;2024-02-21T00:14:00;100100.0;;;6.1;81.8
78679;BME280;67994;59.334;13.528;2024-02-21T00:15:01;100100.0;;;6.1;82.2
78679;BME280;67994;59.334;13.528;2024-02-21T00:16:01;100100.0;;;6.2;81.3
78679;BME280;67994;59.334;13.528;2024-02-21T00:17:01;100100.0;;;6.1;81.5
78679;BME280;67994;59.334;13.528;2024-02-21T00:18:01;100100.0;;;6.1;81.8
78679;BME280;67994;59.334;13.528;2024-02-21T00:19:01;100100.0;;;6.1;81.5
78679;BME280;67994;59.334;13.528;2024-02-21T00:20:00;100100.0;;;6.1;81.8
78679;BME280;67994;59.334;13.528;2024-02-21T00:21:01;100100.0;;;6.2;81.1
78679;BME280;67994;59.334;13.528;2024-02-21T00:22:00;100100.0;;;6.1;81.7
78679;BME280;67994;59.334;13.528;2024-02-21T00:23:01;100100.0;;;6.1;82.1
78679;BME280;67994;59.334;13.528;2024-02-21T00:24:01;100100.0;;;6.2;81.4
78679;BME280;67994;59.334;13.528;2024-02-21T00:25:01;100100.0;;;6.2;81.3
78679;BME280;67994;59.334;13.528;2024-02-21T00:26:01;100100.0;;;6.3;81.4
78679;BME280;67994;59.334;13.528;2024-02-21T00:27:01;100100.0;;;6.3;80.9
78679;BME280;67994;59.334;13.528;2024-02-21T00:28:01;100100.0;;;6.3;80.8
78679;BME280;67994;59.334;13.528;2024-02-21T00:29:01;100100.0;;;6.3;80.8
78679;BME280;67994;59.334;13.528;2024-02-21T00:30:01;100100.0;;;6.1;81.4
78679;BME280;67994;59.334;13.528;2024-02-21T00:31:01;100100.0;;;6.2;81.4
78679;BME280;67994;59.334;13.528;2024-02-21T00:32:01;100100.0;;;6.3;81.2
78679;BME280;67994;59.334;13.528;2024-02-21T00:33:01;100100.0;;;6.3;80.8
78679;BME280;67994;59.334;13.528;2024-02-21T00:34:01;100100.0;;;6.3;81.0
78679;BME280;67994;59.334;13.528;2024-02-21T00:35:01;100100.0;;;6.3;80.8
78679;BME280;67994;59.334;13.528;2024-02-21T00:36:01;100100.0;;;6.4;80.6
78679;BME280;67994;59.334;13.528;2024-02-21T00:37:01;100100.0;;;6.3;81.5
78679;BME280;67994;59.334;13.528;2024-02-21T00:38:01;100100.0;;;6.3;81.4
78679;BME280;67994;59.334;13.528;2024-02-21T00:39:01;100100.0;;;6.3;81.2
78679;BME280;67994;59.334;13.528;2024-02-21T00:40:00;100100.0;;;6.4;81.0
78679;BME280;67994;59.334;13.528;2024-02-21T00:41:01;100100.0;;;6.3;81.0
78679;BME280;67994;59.334;13.528;2024-02-21T00:42:01;100100.0;;;6.3;81.3
78679;BME280;67994;59.334;13.528;2024-02-21T00:43:01;100100.0;;;6.3;81.3
78679;BME280;67994;59.334;13.528;2024-02-21T00:44:01;100100.0;;;6.4;81.2
78679;BME280;67994;59.334;13.528;2024-02-21T00:45:01;100100.0;;;6.4;80.9
78679;BME280;67994;59.334;13.528;2024-02-21T00:46:00;100100.0;;;6.4;80.7
78679;BME280;67994;59.334;13.528;2024-02-21T00:47:01;100100.0;;;6.3;81.3
78679;BME280;67994;59.334;13.528;2024-02-21T00:48:01;100100.0;;;6.3;81.2
78679;BME280;67994;59.334;13.528;2024-02-21T00:49:01;100100.0;;;6.3;80.9
78679;BME280;67994;59.334;13.528;2024-02-21T00:50:00;100100.0;;;6.2;81.3
78679;BME280;67994;59.334;13.528;2024-02-21T00:51:00;100100.0;;;6.2;81.2
78679;BME280;67994;59.334;13.528;2024-02-21T00:52:01;100100.0;;;6.1;81.3
78679;BME280;67994;59.334;13.528;2024-02-21T00:53:01;100100.0;;;6.1;81.4
78679;BME280;67994;59.334;13.528;2024-02-21T00:54:00;100100.0;;;6.1;81.1
78679;BME280;67994;59.334;13.528;2024-02-21T00:55:01;100100.0;;;6.2;80.8
78679;BME280;67994;59.334;13.528;2024-02-21T00:56:01;100100.0;;;6.2;80.8
78679;BME280;67994;59.334;13.528;2024-02-21T00:57:01;100000.0;;;6.1;80.9
78679;BME280;67994;59.334;13.528;2024-02-21T00:58:01;100000.0;;;6.1;80.9
78679;BME280;67994;59.334;13.528;2024-02-21T00:59:01;100000.0;;;6.0;80.9
78679;BME280;67994;59.334;13.528;2024-02-21T01:00:01;100000.0;;;5.9;81.5
78679;BME280;67994;59.334;13.528;2024-02-21T01:01:01;100000.0;;;5.9;81.5
78679;BME280;67994;59.334;13.528;2024-02-21T01:02:01;100000.0;;;6.0;81.4
78679;BME280;67994;59.334;13.528;2024-02-21T01:03:01;100000.0;;;6.0;81.3
78679;BME280;67994;59.334;13.528;2024-02-21T01:04:01;100000.0;;;6.0;81.2
78679;BME280;67994;59.334;13.528;2024-02-21T01:05:01;100000.0;;;6.0;81.2
78679;BME280;67994;59.334;13.528;2024-02-21T01:06:00;100000.0;;;6.0;81.2
78679;BME280;67994;59.334;13.528;2024-02-21T01:07:01;100000.0;;;6.0;81.2
78679;BME280;67994;59.334;13.528;2024-02-21T01:08:00;100000.0;;;6.1;80.7
78679;BME280;67994;59.334;13.528;2024-02-21T01:09:01;100000.0;;;6.1;80.9
78679;BME280;67994;59.334;13.528;2024-02-21T01:10:00;100000.0;;;5.9;81.5
78679;BME280;67994;59.334;13.528;2024-02-21T01:11:00;100000.0;;;5.9;81.3
78679;BME280;67994;59.334;13.528;2024-02-21T01:12:01;100000.0;;;5.9;81.0
78679;BME280;67994;59.334;13.528;2024-02-21T01:13:00;100000.0;;;5.9;81.2
78679;BME280;67994;59.334;13.528;2024-02-21T01:14:01;100000.0;;;5.9;81.5
78679;BME280;67994;59.334;13.528;2024-02-21T01:15:01;100000.0;;;5.9;81.5
78679;BME280;67994;59.334;13.528;2024-02-21T01:16:01;100000.0;;;6.0;81.3
78679;BME280;67994;59.334;13.528;2024-02-21T01:17:01;100000.0;;;5.9;81.3
78679;BME280;67994;59.334;13.528;2024-02-21T01:18:01;100000.0;;;6.0;81.3
78679;BME280;67994;59.334;13.528;2024-02-21T01:19:00;100000.0;;;6.0;81.1
78679;BME280;67994;59.334;13.528;2024-02-21T01:20:00;100000.0;;;6.0;81.1
78679;BME280;67994;59.334;13.528;2024-02-21T01:21:01;100000.0;;;6.1;80.7
78679;BME280;67994;59.334;13.528;2024-02-21T01:22:00;100000.0;;;6.1;80.9
78679;BME280;67994;59.334;13.528;2024-02-21T01:23:00;100000.0;;;6.1;80.8
78679;BME280;67994;59.334;13.528;2024-02-21T01:24:01;100000.0;;;6.0;80.9
78679;BME280;67994;59.334;13.528;2024-02-21T01:25:00;100000.0;;;6.1;80.6
78679;BME280;67994;59.334;13.528;2024-02-21T01:26:01;100000.0;;;6.0;80.7
78679;BME280;67994;59.334;13.528;2024-02-21T01:27:00;100000.0;;;6.1;80.8
78679;BME280;67994;59.334;13.528;2024-02-21T01:28:00;100000.0;;;6.1;80.9
78679;BME280;67994;59.334;13.528;2024-02-21T01:29:01;100000.0;;;6.1;80.7
78679;BME280;67994;59.334;13.528;2024-02-21T01:30:01;100000.0;;;6.0;81.1
78679;BME280;67994;59.334;13.528;2024-02-21T01:31:00;100000.0;;;6.1;80.7
78679;BME280;67994;59.334;13.528;2024-02-21T01:32:00;100000.0;;;6.1;81.1
78679;BME280;67994;59.334;13.528;2024-02-21T01:33:00;100000.0;;;6.1;81.1
78679;BME280;67994;59.334;13.528;2024-02-21T01:34:12;100000.0;;;6.1;80.9
78679;BME280;67994;59.334;13.528;2024-02-21T01:35:00;100000.0;;;6.1;80.8
78679;BME280;67994;59.334;13.528;2024-02-21T01:36:01;100000.0;;;6.1;81.1
78679;BME280;67994;59.334;13.528;2024-02-21T01:37:00;100000.0;;;6.2;80.5
78679;BME280;67994;59.334;13.528;2024-02-21T01:38:01;100000.0;;;6.1;81.4
78679;BME280;67994;59.334;13.528;2024-02-21T01:39:01;100000.0;;;6.1;81.3
78679;BME280;67994;59.334;13.528;2024-02-21T01:40:01;100000.0;;;6.0;81.7
78679;BME280;67994;59.334;13.528;2024-02-21T01:41:01;100000.0;;;6.1;81.8
78679;BME280;67994;59.334;13.528;2024-02-21T01:42:01;100000.0;;;6.2;81.3
78679;BME280;67994;59.334;13.528;2024-02-21T01:43:01;100000.0;;;6.2;81.3
78679;BME280;67994;59.334;13.528;2024-02-21T01:44:01;100000.0;;;6.2;81.5
78679;BME280;67994;59.334;13.528;2024-02-21T01:45:01;100000.0;;;6.3;81.0
78679;BME280;67994;59.334;13.528;2024-02-21T01:46:01;100000.0;;;6.3;81.2
78679;BME280;67994;59.334;13.528;2024-02-21T01:47:01;100000.0;;;6.3;81.3
78679;BME280;67994;59.334;13.528;2024-02-21T01:48:00;100000.0;;;6.1;81.6
78679;BME280;67994;59.334;13.528;2024-02-21T01:49:01;100000.0;;;6.4;81.0
78679;BME280;67994;59.334;13.528;2024-02-21T01:50:01;100000.0;;;6.3;81.4
78679;BME280;67994;59.334;13.528;2024-02-21T01:51:03;100000.0;;;6.3;81.4
78679;BME280;67994;59.334;13.528;2024-02-21T01:52:01;100000.0;;;6.2;81.5
78679;BME280;67994;59.334;13.528;2024-02-21T01:53:01;100000.0;;;6.2;82.0
78679;BME280;67994;59.334;13.528;2024-02-21T01:54:01;100000.0;;;6.2;82.3
78679;BME280;67994;59.334;13.528;2024-02-21T01:55:01;100000.0;;;6.2;82.2
78679;BME280;67994;59.334;13.528;2024-02-21T01:56:01;100000.0;;;6.3;81.8
78679;BME280;67994;59.334;13.528;2024-02-21T01:57:01;100000.0;;;6.4;81.4
78679;BME280;67994;59.334;13.528;2024-02-21T01:58:01;100000.0;;;6.4;81.4
78679;BME280;67994;59.334;13.528;2024-02-21T01:59:01;100000.0;;;6.5;81.5
78679;BME280;67994;59.334;13.528;2024-02-21T02:00:01;100000.0;;;6.2;82.3
78679;BME280;67994;59.334;13.528;2024-02-21T02:01:01;100000.0;;;6.3;81.8
78679;BME280;67994;59.334;13.528;2024-02-21T02:02:02;100000.0;;;6.4;81.4
78679;BME280;67994;59.334;13.528;2024-02-21T02:03:01;100000.0;;;6.3;82.0
78679;BME280;67994;59.334;13.528;2024-02-21T02:04:01;100000.0;;;6.4;81.7
78679;BME280;67994;59.334;13.528;2024-02-21T02:05:01;100000.0;;;6.3;81.9
78679;BME280;67994;59.334;13.528;2024-02-21T02:06:01;100000.0;;;6.3;82.0
78679;BME280;67994;59.334;13.528;2024-02-21T02:07:02;100000.0;;;6.3;82.0
78679;BME280;67994;59.334;13.528;2024-02-21T02:08:01;100000.0;;;6.3;81.9
78679;BME280;67994;59.334;13.528;2024-02-21T02:09:01;100000.0;;;6.4;81.9
78679;BME280;67994;59.334;13.528;2024-02-21T02:10:01;99900.0;;;6.3;82.6
78679;BME280;67994;59.334;13.528;2024-02-21T02:11:01;99900.0;;;6.4;82.5
78679;BME280;67994;59.334;13.528;2024-02-21T02:12:01;99900.0;;;6.4;82.5
78679;BME280;67994;59.334;13.528;2024-02-21T02:13:01;99900.0;;;6.4;82.3
78679;BME280;67994;59.334;13.528;2024-02-21T02:14:01;99900.0;;;6.4;82.0
78679;BME280;67994;59.334;13.528;2024-02-21T02:15:02;99900.0;;;6.5;82.2
78679;BME280;67994;59.334;13.528;2024-02-21T02:16:01;99900.0;;;6.5;81.9
78679;BME280;67994;59.334;13.528;2024-02-21T02:17:00;99900.0;;;6.4;82.0
78679;BME280;67994;59.334;13.528;2024-02-21T02:18:00;99900.0;;;6.4;82.1
78679;BME280;67994;59.334;13.528;2024-02-21T02:19:00;99900.0;;;6.5;82.4
78679;BME280;67994;59.334;13.528;2024-02-21T02:20:01;99900.0;;;6.4;82.4
78679;BME280;67994;59.334;13.528;2024-02-21T02:21:00;99900.0;;;6.4;82.8
78679;BME280;67994;59.334;13.528;2024-02-21T02:22:07;99900.0;;;6.5;82.4
78679;BME280;67994;59.334;13.528;2024-02-21T02:23:03;99900.0;;;6.6;82.2
78679;BME280;67994;59.334;13.528;2024-02-21T02:24:00;99900.0;;;6.6;82.2
78679;BME280;67994;59.334;13.528;2024-02-21T02:25:01;99900.0;;;6.4;82.4
78679;BME280;67994;59.334;13.528;2024-02-21T02:26:01;99900.0;;;6.6;82.4
78679;BME280;67994;59.334;13.528;2024-02-21T02:27:01;99900.0;;;6.6;82.1
78679;BME280;67994;59.334;13.528;2024-02-21T02:28:01;99900.0;;;6.5;82.2
78679;BME280;67994;59.334;13.528;2024-02-21T02:29:01;99900.0;;;6.4;82.9
78679;BME280;67994;59.334;13.528;2024-02-21T02:30:01;99900.0;;;6.4;83.2
78679;BME280;67994;59.334;13.528;2024-02-21T02:31:01;99900.0;;;6.4;82.9
78679;BME280;67994;59.334;13.528;2024-02-21T02:32:01;99900.0;;;6.5;82.9
78679;BME280;67994;59.334;13.528;2024-02-21T02:33:01;99900.0;;;6.5;82.5
78679;BME280;67994;59.334;13.528;2024-02-21T02:34:01;99900.0;;;6.5;82.5
78679;BME280;67994;59.334;13.528;2024-02-21T02:35:01;99900.0;;;6.5;82.4
78679;BME280;67994;59.334;13.528;2024-02-21T02:36:01;99900.0;;;6.6;82.4
78679;BME280;67994;59.334;13.528;2024-02-21T02:37:01;99900.0;;;6.5;82.6
78679;BME280;67994;59.334;13.528;2024-02-21T02:38:01;99900.0;;;6.5;82.5
78679;BME280;67994;59.334;13.528;2024-02-21T02:39:01;99900.0;;;6.5;82.3
78679;BME280;67994;59.334;13.528;2024-02-21T02:40:01;99900.0;;;6.5;82.3
78679;BME280;67994;59.334;13.528;2024-02-21T02:41:01;99900.0;;;6.4;82.6
78679;BME280;67994;59.334;13.528;2024-02-21T02:42:01;99900.0;;;6.4;82.6
78679;BME280;67994;59.334;13.528;2024-02-21T02:43:01;99900.0;;;6.6;82.3
78679;BME280;67994;59.334;13.528;2024-02-21T02:44:01;99900.0;;;6.6;82.3
78679;BME280;67994;59.334;13.528;2024-02-21T02:45:01;99900.0;;;6.5;82.3
78679;BME280;67994;59.334;13.528;2024-02-21T02:46:01;99900.0;;;6.5;82.5
78679;BME280;67994;59.334;13.528;2024-02-21T02:47:01;99900.0;;;6.6;82.3
78679;BME280;67994;59.334;13.528;2024-02-21T02:48:01;99900.0;;;6.6;82.0
78679;BME280;67994;59.334;13.528;2024-02-21T02:49:01;99900.0;;;6.7;81.5
78679;BME280;67994;59.334;13.528;2024-02-21T02:50:01;99900.0;;;6.6;81.7
78679;BME280;67994;59.334;13.528;2024-02-21T02:51:00;99900.0;;;6.6;81.8
78679;BME280;67994;59.334;13.528;2024-02-21T02:52:01;99900.0;;;6.6;81.8
78679;BME280;67994;59.334;13.528;2024-02-21T02:53:01;99900.0;;;6.6;81.8
78679;BME280;67994;59.334;13.528;2024-02-21T02:54:02;99900.0;;;6.5;81.9
78679;BME280;67994;59.334;13.528;2024-02-21T02:55:01;99900.0;;;6.5;82.3
78679;BME280;67994;59.334;13.528;2024-02-21T02:56:01;99900.0;;;6.6;82.0
78679;BME280;67994;59.334;13.528;2024-02-21T02:57:00;99900.0;;;6.6;82.2
78679;BME280;67994;59.334;13.528;2024-02-21T02:58:00;99900.0;;;6.5;82.2
78679;BME280;67994;59.334;13.528;2024-02-21T02:59:01;99900.0;;;6.5;82.0
78679;BME280;67994;59.334;13.528;2024-02-21T03:00:01;99900.0;;;6.6;82.9
78679;BME280;67994;59.334;13.528;2024-02-21T03:01:00;99900.0;;;6.5;82.7
78679;BME280;67994;59.334;13.528;2024-02-21T03:02:00;99900.0;;;6.4;82.8
78679;BME280;67994;59.334;13.528;2024-02-21T03:03:01;99900.0;;;6.4;82.3
78679;BME280;67994;59.334;13.528;2024-02-21T03:04:00;99900.0;;;6.5;82.1
78679;BME280;67994;59.334;13.528;2024-02-21T03:05:01;99900.0;;;6.6;82.0
78679;BME280;67994;59.334;13.528;2024-02-21T03:06:01;99900.0;;;6.5;82.6
78679;BME280;67994;59.334;13.528;2024-02-21T03:07:01;99900.0;;;6.5;82.4
78679;BME280;67994;59.334;13.528;2024-02-21T03:08:01;99900.0;;;6.6;82.3
78679;BME280;67994;59.334;13.528;2024-02-21T03:09:01;99900.0;;;6.5;82.7
78679;BME280;67994;59.334;13.528;2024-02-21T03:10:00;99900.0;;;6.4;82.5
78679;BME280;67994;59.334;13.528;2024-02-21T03:11:01;99900.0;;;6.5;82.2
78679;BME280;67994;59.334;13.528;2024-02-21T03:12:00;99800.0;;;6.4;82.3
78679;BME280;67994;59.334;13.528;2024-02-21T03:13:01;99800.0;;;6.5;82.3
78679;BME280;67994;59.334;13.528;2024-02-21T03:14:00;99800.0;;;6.6;82.3
78679;BME280;67994;59.334;13.528;2024-02-21T03:15:01;99800.0;;;6.5;82.6
78679;BME280;67994;59.334;13.528;2024-02-21T03:16:01;99800.0;;;6.5;82.3
78679;BME280;67994;59.334;13.528;2024-02-21T03:17:01;99800.0;;;6.6;82.6
78679;BME280;67994;59.334;13.528;2024-02-21T03:18:01;99800.0;;;6.5;82.6
78679;BME280;67994;59.334;13.528;2024-02-21T03:19:00;99800.0;;;6.4;82.5
78679;BME280;67994;59.334;13.528;2024-02-21T03:20:01;99800.0;;;6.5;82.6
78679;BME280;67994;59.334;13.528;2024-02-21T03:21:01;99800.0;;;6.5;82.2
78679;BME280;67994;59.334;13.528;2024-02-21T03:22:00;99800.0;;;6.6;82.6
78679;BME280;67994;59.334;13.528;2024-02-21T03:23:00;99800.0;;;6.5;82.6
78679;BME280;67994;59.334;13.528;2024-02-21T03:24:01;99800.0;;;6.4;82.6
78679;BME280;67994;59.334;13.528;2024-02-21T03:25:01;99800.0;;;6.5;82.6
78679;BME280;67994;59.334;13.528;2024-02-21T03:26:01;99800.0;;;6.6;82.6
78679;BME280;67994;59.334;13.528;2024-02-21T03:27:01;99800.0;;;6.6;82.4
78679;BME280;67994;59.334;13.528;2024-02-21T03:28:00;99800.0;;;6.7;81.8
78679;BME280;67994;59.334;13.528;2024-02-21T03:29:01;99800.0;;;6.8;81.6
78679;BME280;67994;59.334;13.528;2024-02-21T03:30:00;99800.0;;;6.8;81.6
78679;BME280;67994;59.334;13.528;2024-02-21T03:31:00;99800.0;;;6.7;81.6
78679;BME280;67994;59.334;13.528;2024-02-21T03:32:00;99800.0;;;6.7;81.9
78679;BME280;67994;59.334;13.528;2024-02-21T03:33:02;99800.0;;;6.7;81.4
78679;BME280;67994;59.334;13.528;2024-02-21T03:34:01;99800.0;;;6.7;81.4
78679;BME280;67994;59.334;13.528;2024-02-21T03:35:01;99800.0;;;6.6;81.8
78679;BME280;67994;59.334;13.528;2024-02-21T03:36:00;99800.0;;;6.7;81.8
78679;BME280;67994;59.334;13.528;2024-02-21T03:37:01;99800.0;;;6.6;82.0
78679;BME280;67994;59.334;13.528;2024-02-21T03:38:01;99800.0;;;6.6;82.0
78679;BME280;67994;59.334;13.528;2024-02-21T03:39:01;99800.0;;;6.6;81.8
78679;BME280;67994;59.334;13.528;2024-02-21T03:40:00;99800.0;;;6.6;81.8
78679;BME280;67994;59.334;13.528;2024-02-21T03:41:01;99800.0;;;6.4;82.4
78679;BME280;67994;59.334;13.528;2024-02-21T03:42:01;99800.0;;;6.4;82.4
78679;BME280;67994;59.334;13.528;2024-02-21T03:43:02;99800.0;;;6.6;82.0
78679;BME280;67994;59.334;13.528;2024-02-21T03:44:01;99800.0;;;6.6;81.9
78679;BME280;67994;59.334;13.528;2024-02-21T03:45:01;99800.0;;;6.6;81.8
78679;BME280;67994;59.334;13.528;2024-02-21T03:46:01;99800.0;;;6.6;81.7
78679;BME280;67994;59.334;13.528;2024-02-21T03:47:01;99800.0;;;6.5;82.0
78679;BME280;67994;59.334;13.528;2024-02-21T03:48:00;99800.0;;;6.5;82.0
78679;BME280;67994;59.334;13.528;2024-02-21T03:49:01;99800.0;;;6.6;82.0
78679;BME280;67994;59.334;13.528;2024-02-21T03:50:01;99800.0;;;6.6;81.7
78679;BME280;67994;59.334;13.528;2024-02-21T03:51:01;99800.0;;;6.5;82.0
78679;BME280;67994;59.334;13.528;2024-02-21T03:52:01;99800.0;;;6.5;82.0
78679;BME280;67994;59.334;13.528;2024-02-21T03:53:01;99800.0;;;6.5;82.1
78679;BME280;67994;59.334;13.528;2024-02-21T03:54:01;99800.0;;;6.6;81.7
78679;BME280;67994;59.334;13.528;2024-02-21T03:55:01;99800.0;;;6.5;81.8
78679;BME280;67994;59.334;13.528;2024-02-21T03:56:01;99800.0;;;6.6;82.1
78679;BME280;67994;59.334;13.528;2024-02-21T03:57:01;99800.0;;;6.6;81.7
78679;BME280;67994;59.334;13.528;2024-02-21T03:58:00;99800.0;;;6.6;81.7
78679;BME280;67994;59.334;13.528;2024-02-21T03:59:00;99800.0;;;6.6;81.9
78679;BME280;67994;59.334;13.528;2024-02-21T04:00:00;99800.0;;;6.5;82.1
78679;BME280;67994;59.334;13.528;2024-02-21T04:01:01;99800.0;;;6.6;81.8
78679;BME280;67994;59.334;13.528;2024-02-21T04:02:00;99800.0;;;6.5;82.0
78679;BME280;67994;59.334;13.528;2024-02-21T04:03:01;99800.0;;;6.5;82.0
78679;BME280;67994;59.334;13.528;2024-02-21T04:04:01;99800.0;;;6.5;82.1
78679;BME280;67994;59.334;13.528;2024-02-21T04:05:01;99800.0;;;6.5;82.1
78679;BME280;67994;59.334;13.528;2024-02-21T04:06:00;99800.0;;;6.4;82.4
78679;BME280;67994;59.334;13.528;2024-02-21T04:07:01;99800.0;;;6.4;82.6
78679;BME280;67994;59.334;13.528;2024-02-21T04:08:03;99800.0;;;6.5;82.2
78679;BME280;67994;59.334;13.528;2024-02-21T04:09:01;99800.0;;;6.6;82.0
78679;BME280;67994;59.334;13.528;2024-02-21T04:10:01;99800.0;;;6.5;82.3
78679;BME280;67994;59.334;13.528;2024-02-21T04:11:01;99800.0;;;6.4;82.6
78679;BME280;67994;59.334;13.528;2024-02-21T04:12:01;99800.0;;;6.5;82.4
78679;BME280;67994;59.334;13.528;2024-02-21T04:13:01;99800.0;;;6.5;82.4
78679;BME280;67994;59.334;13.528;2024-02-21T04:14:00;99800.0;;;6.4;82.7
78679;BME280;67994;59.334;13.528;2024-02-21T04:15:01;99800.0;;;6.4;82.4
78679;BME280;67994;59.334;13.528;2024-02-21T04:16:01;99800.0;;;6.4;82.5
78679;BME280;67994;59.334;13.528;2024-02-21T04:17:01;99800.0;;;6.4;82.9
78679;BME280;67994;59.334;13.528;2024-02-21T04:18:01;99800.0;;;6.5;82.5
78679;BME280;67994;59.334;13.528;2024-02-21T04:19:01;99800.0;;;6.5;82.4
78679;BME280;67994;59.334;13.528;2024-02-21T04:20:03;99800.0;;;6.4;82.6
78679;BME280;67994;59.334;13.528;2024-02-21T04:21:01;99800.0;;;6.4;82.8
78679;BME280;67994;59.334;13.528;2024-02-21T04:22:01;99800.0;;;6.4;82.8
78679;BME280;67994;59.334;13.528;2024-02-21T04:23:01;99800.0;;;6.6;82.3
78679;BME280;67994;59.334;13.528;2024-02-21T04:24:01;99800.0;;;6.6;82.3
78679;BME280;67994;59.334;13.528;2024-02-21T04:25:01;99800.0;;;6.4;82.8
78679;BME280;67994;59.334;13.528;2024-02-21T04:26:01;99800.0;;;6.4;83.0
78679;BME280;67994;59.334;13.528;2024-02-21T04:27:00;99800.0;;;6.5;82.9
78679;BME280;67994;59.334;13.528;2024-02-21T04:28:00;99800.0;;;6.4;82.9
78679;BME280;67994;59.334;13.528;2024-02-21T04:29:00;99800.0;;;6.4;82.6
78679;BME280;67994;59.334;13.528;2024-02-21T04:30:01;99800.0;;;6.6;82.3
78679;BME280;67994;59.334;13.528;2024-02-21T04:31:00;99800.0;;;6.5;82.5
78679;BME280;67994;59.334;13.528;2024-02-21T04:32:01;99800.0;;;6.5;82.5
78679;BME280;67994;59.334;13.528;2024-02-21T04:33:00;99800.0;;;6.6;82.4
78679;BME280;67994;59.334;13.528;2024-02-21T04:34:00;99800.0;;;6.6;82.3
78679;BME280;67994;59.334;13.528;2024-02-21T04:35:01;99800.0;;;6.7;82.0
78679;BME280;67994;59.334;13.528;2024-02-21T04:36:00;99800.0;;;6.5;82.3
78679;BME280;67994;59.334;13.528;2024-02-21T04:37:00;99800.0;;;6.6;82.1
78679;BME280;67994;59.334;13.528;2024-02-21T04:38:00;99800.0;;;6.5;82.6
78679;BME280;67994;59.334;13.528;2024-02-21T04:39:00;99800.0;;;6.6;82.1
78679;BME280;67994;59.334;13.528;2024-02-21T04:40:01;99800.0;;;6.6;82.3
78679;BME280;67994;59.334;13.528;2024-02-21T04:41:01;99800.0;;;6.5;82.4
78679;BME280;67994;59.334;13.528;2024-02-21T04:42:01;99800.0;;;6.5;82.6
78679;BME280;67994;59.334;13.528;2024-02-21T04:43:01;99800.0;;;6.5;82.8
78679;BME280;67994;59.334;13.528;2024-02-21T04:44:01;99800.0;;;6.6;82.4
78679;BME280;67994;59.334;13.528;2024-02-21T04:45:00;99700.0;;;6.6;82.3
78679;BME280;67994;59.334;13.528;2024-02-21T04:46:01;99800.0;;;6.6;82.3
78679;BME280;67994;59.334;13.528;2024-02-21T04:47:00;99800.0;;;6.6;81.8
78679;BME280;67994;59.334;13.528;2024-02-21T04:48:01;99800.0;;;6.7;81.7
78679;BME280;67994;59.334;13.528;2024-02-21T04:49:00;99800.0;;;6.8;81.5
78679;BME280;67994;59.334;13.528;2024-02-21T04:50:00;99800.0;;;6.8;81.4
78679;BME280;67994;59.334;13.528;2024-02-21T04:51:01;99800.0;;;7.0;80.9
78679;BME280;67994;59.334;13.528;2024-02-21T04:52:01;99800.0;;;6.8;81.3
78679;BME280;67994;59.334;13.528;2024-02-21T04:53:00;99800.0;;;6.9;81.0
78679;BME280;67994;59.334;13.528;2024-02-21T04:54:00;99800.0;;;6.7;81.6
78679;BME280;67994;59.334;13.528;2024-02-21T04:55:01;99800.0;;;6.8;81.6
78679;BME280;67994;59.334;13.528;2024-02-21T04:56:00;99800.0;;;6.7;81.7
78679;BME280;67994;59.334;13.528;2024-02-21T04:57:01;99800.0;;;6.8;81.6
78679;BME280;67994;59.334;13.528;2024-02-21T04:58:00;99800.0;;;6.7;82.0
78679;BME280;67994;59.334;13.528;2024-02-21T04:59:00;99800.0;;;6.9;81.6
78679;BME280;67994;59.334;13.528;2024-02-21T05:00:00;99800.0;;;6.8;81.5
78679;BME280;67994;59.334;13.528;2024-02-21T05:01:00;99800.0;;;6.8;81.5
78679;BME280;67994;59.334;13.528;2024-02-21T05:02:00;99800.0;;;6.9;81.3
78679;BME280;67994;59.334;13.528;2024-02-21T05:03:01;99800.0;;;6.9;81.4
78679;BME280;67994;59.334;13.528;2024-02-21T05:04:01;99800.0;;;6.9;81.4
78679;BME280;67994;59.334;13.528;2024-02-21T05:05:00;99800.0;;;6.9;81.4
78679;BME280;67994;59.334;13.528;2024-02-21T05:06:00;99800.0;;;6.9;81.1
78679;BME280;67994;59.334;13.528;2024-02-21T05:07:01;99800.0;;;6.9;80.9
78679;BME280;67994;59.334;13.528;2024-02-21T05:08:00;99800.0;;;6.9;81.1
78679;BME280;67994;59.334;13.528;2024-02-21T05:09:00;99800.0;;;6.9;80.7
78679;BME280;67994;59.334;13.528;2024-02-21T05:10:00;99700.0;;;6.9;81.0
78679;BME280;67994;59.334;13.528;2024-02-21T05:11:01;99800.0;;;6.9;81.0
78679;BME280;67994;59.334;13.528;2024-02-21T05:12:01;99800.0;;;6.9;81.1
78679;BME280;67994;59.334;13.528;2024-02-21T05:13:00;99700.0;;;6.7;81.4
78679;BME280;67994;59.334;13.528;2024-02-21T05:14:01;99800.0;;;6.9;81.2
78679;BME280;67994;59.334;13.528;2024-02-21T05:15:01;99800.0;;;6.9;81.2
78679;BME280;67994;59.334;13.528;2024-02-21T05:16:00;99800.0;;;6.8;81.6
78679;BME280;67994;59.334;13.528;2024-02-21T05:17:00;99800.0;;;6.8;81.4
78679;BME280;67994;59.334;13.528;2024-02-21T05:18:00;99700.0;;;6.8;81.4
78679;BME280;67994;59.334;13.528;2024-02-21T05:19:01;99800.0;;;6.8;81.1
78679;BME280;67994;59.334;13.528;2024-02-21T05:20:00;99700.0;;;6.8;81.2
78679;BME280;67994;59.334;13.528;2024-02-21T05:21:01;99700.0;;;6.9;81.0
78679;BME280;67994;59.334;13.528;2024-02-21T05:22:01;99700.0;;;7.1;80.6
78679;BME280;67994;59.334;13.528;2024-02-21T05:23:03;99700.0;;;7.0;80.7
78679;BME280;67994;59.334;13.528;2024-02-21T05:24:00;99700.0;;;6.9;80.8
78679;BME280;67994;59.334;13.528;2024-02-21T05:25:00;99700.0;;;7.1;80.4
78679;BME280;67994;59.334;13.528;2024-02-21T05:26:00;99700.0;;;7.0;80.2
78679;BME280;67994;59.334;13.528;2024-02-21T05:27:01;99700.0;;;6.9;80.4
78679;BME280;67994;59.334;13.528;2024-02-21T05:28:01;99700.0;;;6.9;80.4
78679;BME280;67994;59.334;13.528;2024-02-21T05:29:00;99700.0;;;7.0;80.3